sensor_id;sensor_type;location;lat;lon;timestamp;temperature;humidity
31309;DHT22;17936;52.446;10.840;2023-04-24T00:01:49;13.20;99.90
31309;DHT22;17936;52.446;10.840;2023-04-24T00:04:15;13.20;99.90
31309;DHT22;17936;52.446;10.840;2023-04-24T00:06:42;13.20;99.90
31309;DHT22;17936;52.446;10.840;2023-04-24T00:09:09;13.20;99.90
31309;DHT22;17936;52.446;10.840;2023-04-24T00:11:37;13.20;99.90
31309;DHT22;17936;52.446;10.840;2023-04-24T00:14:03;13.20;99.90
31309;DHT22;17936;52.446;10.840;2023-04-24T00:16:29;13.30;99.90
31309;DHT22;17936;52.446;10.840;2023-04-24T00:18:54;13.30;99.90
31309;DHT22;17936;52.446;10.840;2023-04-24T00:21:20;13.40;99.90
31309;DHT22;17936;52.446;10.840;2023-04-24T00:23:47;13.40;99.90
31309;DHT22;17936;52.446;10.840;2023-04-24T00:26:12;13.30;99.90
31309;DHT22;17936;52.446;10.840;2023-04-24T00:28:38;13.30;99.90
31309;DHT22;17936;52.446;10.840;2023-04-24T00:31:03;13.20;99.90
31309;DHT22;17936;52.446;10.840;2023-04-24T00:33:29;13.20;99.90
31309;DHT22;17936;52.446;10.840;2023-04-24T00:35:54;13.10;99.90
31309;DHT22;17936;52.446;10.840;2023-04-24T00:38:20;13.10;99.90
31309;DHT22;17936;52.446;10.840;2023-04-24T00:40:47;13.00;99.90
31309;DHT22;17936;52.446;10.840;2023-04-24T00:43:13;12.90;99.90
31309;DHT22;17936;52.446;10.840;2023-04-24T00:45:39;12.90;99.90
31309;DHT22;17936;52.446;10.840;2023-04-24T00:48:05;12.90;99.90
31309;DHT22;17936;52.446;10.840;2023-04-24T00:50:32;12.80;99.90
31309;DHT22;17936;52.446;10.840;2023-04-24T00:52:57;12.80;99.90
31309;DHT22;17936;52.446;10.840;2023-04-24T00:55:23;12.70;99.90
31309;DHT22;17936;52.446;10.840;2023-04-24T00:57:49;12.70;99.90
31309;DHT22;17936;52.446;10.840;2023-04-24T01:00:16;12.70;99.90
31309;DHT22;17936;52.446;10.840;2023-04-24T01:02:44;12.60;99.90
31309;DHT22;17936;52.446;10.840;2023-04-24T01:05:11;12.60;99.90
31309;DHT22;17936;52.446;10.840;2023-04-24T01:07:39;12.60;99.90
31309;DHT22;17936;52.446;10.840;2023-04-24T01:10:07;12.50;99.90
31309;DHT22;17936;52.446;10.840;2023-04-24T01:12:33;12.50;99.90
31309;DHT22;17936;52.446;10.840;2023-04-24T01:14:59;12.50;99.90
31309;DHT22;17936;52.446;10.840;2023-04-24T01:17:25;12.40;99.90
31309;DHT22;17936;52.446;10.840;2023-04-24T01:19:50;12.40;99.90
31309;DHT22;17936;52.446;10.840;2023-04-24T01:22:19;12.40;99.90
31309;DHT22;17936;52.446;10.840;2023-04-24T01:24:46;12.30;99.90
31309;DHT22;17936;52.446;10.840;2023-04-24T01:27:12;12.30;99.90
31309;DHT22;17936;52.446;10.840;2023-04-24T01:29:38;12.30;99.90
31309;DHT22;17936;52.446;10.840;2023-04-24T01:32:04;12.20;99.90
31309;DHT22;17936;52.446;10.840;2023-04-24T01:34:30;12.10;99.90
31309;DHT22;17936;52.446;10.840;2023-04-24T01:36:56;12.10;99.90
31309;DHT22;17936;52.446;10.840;2023-04-24T01:39:22;12.10;99.90
31309;DHT22;17936;52.446;10.840;2023-04-24T01:41:52;12.10;99.90
31309;DHT22;17936;52.446;10.840;2023-04-24T01:44:18;12.10;99.90
31309;DHT22;17936;52.446;10.840;2023-04-24T01:46:43;12.10;99.90
31309;DHT22;17936;52.446;10.840;2023-04-24T01:49:09;12.20;99.90
31309;DHT22;17936;52.446;10.840;2023-04-24T01:51:35;12.30;99.90
31309;DHT22;17936;52.446;10.840;2023-04-24T01:54:00;12.20;99.90
31309;DHT22;17936;52.446;10.840;2023-04-24T01:56:29;12.10;99.90
31309;DHT22;17936;52.446;10.840;2023-04-24T01:58:55;12.00;99.90
31309;DHT22;17936;52.446;10.840;2023-04-24T02:01:23;12.00;99.90
31309;DHT22;17936;52.446;10.840;2023-04-24T02:03:48;11.90;99.90
31309;DHT22;17936;52.446;10.840;2023-04-24T02:06:14;11.90;99.90
31309;DHT22;17936;52.446;10.840;2023-04-24T02:08:39;11.90;99.90
31309;DHT22;17936;52.446;10.840;2023-04-24T02:11:05;11.90;99.90
31309;DHT22;17936;52.446;10.840;2023-04-24T02:13:31;11.80;99.90
31309;DHT22;17936;52.446;10.840;2023-04-24T02:15:58;11.90;99.90
31309;DHT22;17936;52.446;10.840;2023-04-24T02:18:24;11.80;99.90
31309;DHT22;17936;52.446;10.840;2023-04-24T02:20:49;11.80;99.90
31309;DHT22;17936;52.446;10.840;2023-04-24T02:23:15;11.90;99.90
31309;DHT22;17936;52.446;10.840;2023-04-24T02:25:40;11.90;99.90
31309;DHT22;17936;52.446;10.840;2023-04-24T02:28:06;12.00;99.90
31309;DHT22;17936;52.446;10.840;2023-04-24T02:30:31;12.00;99.90
31309;DHT22;17936;52.446;10.840;2023-04-24T02:32:57;12.00;99.90
31309;DHT22;17936;52.446;10.840;2023-04-24T02:35:22;11.90;99.90
31309;DHT22;17936;52.446;10.840;2023-04-24T02:37:48;11.90;99.90
31309;DHT22;17936;52.446;10.840;2023-04-24T02:40:13;11.90;99.90
31309;DHT22;17936;52.446;10.840;2023-04-24T02:42:39;11.90;99.90
31309;DHT22;17936;52.446;10.840;2023-04-24T02:45:05;11.90;99.90
31309;DHT22;17936;52.446;10.840;2023-04-24T02:47:30;11.90;99.90
31309;DHT22;17936;52.446;10.840;2023-04-24T02:49:56;11.90;99.90
31309;DHT22;17936;52.446;10.840;2023-04-24T02:52:21;11.90;99.90
31309;DHT22;17936;52.446;10.840;2023-04-24T02:54:47;11.80;99.90
31309;DHT22;17936;52.446;10.840;2023-04-24T02:57:13;11.80;99.90
31309;DHT22;17936;52.446;10.840;2023-04-24T02:59:38;11.80;99.90
31309;DHT22;17936;52.446;10.840;2023-04-24T03:02:04;11.80;99.90
31309;DHT22;17936;52.446;10.840;2023-04-24T03:04:29;11.70;99.90
31309;DHT22;17936;52.446;10.840;2023-04-24T03:06:55;11.70;99.90
31309;DHT22;17936;52.446;10.840;2023-04-24T03:09:21;11.60;99.90
31309;DHT22;17936;52.446;10.840;2023-04-24T03:11:46;11.60;99.90
31309;DHT22;17936;52.446;10.840;2023-04-24T03:14:12;11.60;99.90
31309;DHT22;17936;52.446;10.840;2023-04-24T03:16:37;11.50;99.90
31309;DHT22;17936;52.446;10.840;2023-04-24T03:19:03;11.40;99.90
31309;DHT22;17936;52.446;10.840;2023-04-24T03:21:28;11.40;99.90
31309;DHT22;17936;52.446;10.840;2023-04-24T03:23:54;11.30;99.90
31309;DHT22;17936;52.446;10.840;2023-04-24T03:26:20;11.30;99.90
31309;DHT22;17936;52.446;10.840;2023-04-24T03:28:45;11.20;99.90
31309;DHT22;17936;52.446;10.840;2023-04-24T03:31:11;11.10;99.90
31309;DHT22;17936;52.446;10.840;2023-04-24T03:33:36;11.00;99.90
31309;DHT22;17936;52.446;10.840;2023-04-24T03:36:02;11.00;99.90
31309;DHT22;17936;52.446;10.840;2023-04-24T03:38:28;11.00;99.90
31309;DHT22;17936;52.446;10.840;2023-04-24T03:40:53;10.90;99.90
31309;DHT22;17936;52.446;10.840;2023-04-24T03:43:19;10.90;99.90
31309;DHT22;17936;52.446;10.840;2023-04-24T03:45:44;10.90;99.90
31309;DHT22;17936;52.446;10.840;2023-04-24T03:48:10;10.90;99.90
31309;DHT22;17936;52.446;10.840;2023-04-24T03:50:36;11.00;99.90
31309;DHT22;17936;52.446;10.840;2023-04-24T03:53:01;11.00;99.90
31309;DHT22;17936;52.446;10.840;2023-04-24T03:55:27;10.90;99.90
31309;DHT22;17936;52.446;10.840;2023-04-24T03:57:52;10.90;99.90
31309;DHT22;17936;52.446;10.840;2023-04-24T04:00:18;10.90;99.90
31309;DHT22;17936;52.446;10.840;2023-04-24T04:02:43;10.90;99.90
31309;DHT22;17936;52.446;10.840;2023-04-24T04:05:09;10.90;99.90
31309;DHT22;17936;52.446;10.840;2023-04-24T04:07:35;10.80;99.90
31309;DHT22;17936;52.446;10.840;2023-04-24T04:10:00;10.80;99.90
31309;DHT22;17936;52.446;10.840;2023-04-24T04:12:26;10.90;99.90
31309;DHT22;17936;52.446;10.840;2023-04-24T04:14:51;10.80;99.90
31309;DHT22;17936;52.446;10.840;2023-04-24T04:17:17;10.80;99.90
31309;DHT22;17936;52.446;10.840;2023-04-24T04:19:43;10.80;99.90
31309;DHT22;17936;52.446;10.840;2023-04-24T04:22:08;10.70;99.90
31309;DHT22;17936;52.446;10.840;2023-04-24T04:24:34;10.60;99.90
31309;DHT22;17936;52.446;10.840;2023-04-24T04:27:06;10.60;99.90
31309;DHT22;17936;52.446;10.840;2023-04-24T04:29:32;10.50;99.90
31309;DHT22;17936;52.446;10.840;2023-04-24T04:31:58;10.40;99.90
31309;DHT22;17936;52.446;10.840;2023-04-24T04:34:23;10.30;99.90
31309;DHT22;17936;52.446;10.840;2023-04-24T04:36:49;10.40;99.90
31309;DHT22;17936;52.446;10.840;2023-04-24T04:39:15;10.40;99.90
31309;DHT22;17936;52.446;10.840;2023-04-24T04:41:41;10.40;99.90
31309;DHT22;17936;52.446;10.840;2023-04-24T04:44:07;10.50;99.90
31309;DHT22;17936;52.446;10.840;2023-04-24T04:46:34;10.60;99.90
31309;DHT22;17936;52.446;10.840;2023-04-24T04:49:01;10.60;99.90
31309;DHT22;17936;52.446;10.840;2023-04-24T04:51:27;10.50;99.90
31309;DHT22;17936;52.446;10.840;2023-04-24T04:53:53;10.50;99.90
31309;DHT22;17936;52.446;10.840;2023-04-24T04:56:18;10.60;99.90
31309;DHT22;17936;52.446;10.840;2023-04-24T04:58:44;10.60;99.90
31309;DHT22;17936;52.446;10.840;2023-04-24T05:01:10;10.60;99.90
31309;DHT22;17936;52.446;10.840;2023-04-24T05:03:35;10.70;99.90
31309;DHT22;17936;52.446;10.840;2023-04-24T05:06:01;10.80;99.90
31309;DHT22;17936;52.446;10.840;2023-04-24T05:08:27;10.70;99.90
31309;DHT22;17936;52.446;10.840;2023-04-24T05:10:53;10.80;99.90
31309;DHT22;17936;52.446;10.840;2023-04-24T05:13:19;10.80;99.90
31309;DHT22;17936;52.446;10.840;2023-04-24T05:15:44;10.70;99.90
31309;DHT22;17936;52.446;10.840;2023-04-24T05:18:10;10.80;99.90
31309;DHT22;17936;52.446;10.840;2023-04-24T05:20:35;10.80;99.90
31309;DHT22;17936;52.446;10.840;2023-04-24T05:23:01;10.80;99.90
31309;DHT22;17936;52.446;10.840;2023-04-24T05:25:27;10.80;99.90
31309;DHT22;17936;52.446;10.840;2023-04-24T05:27:52;10.80;99.90
31309;DHT22;17936;52.446;10.840;2023-04-24T05:30:19;10.90;99.90
31309;DHT22;17936;52.446;10.840;2023-04-24T05:32:45;11.00;99.90
31309;DHT22;17936;52.446;10.840;2023-04-24T05:35:10;11.00;99.90
31309;DHT22;17936;52.446;10.840;2023-04-24T05:37:36;11.10;99.90
31309;DHT22;17936;52.446;10.840;2023-04-24T05:40:01;11.20;99.90
31309;DHT22;17936;52.446;10.840;2023-04-24T05:42:27;11.30;99.90
31309;DHT22;17936;52.446;10.840;2023-04-24T05:44:52;11.40;99.90
31309;DHT22;17936;52.446;10.840;2023-04-24T05:47:19;11.40;99.90
31309;DHT22;17936;52.446;10.840;2023-04-24T05:49:47;11.50;99.90
31309;DHT22;17936;52.446;10.840;2023-04-24T05:52:12;11.50;99.90
31309;DHT22;17936;52.446;10.840;2023-04-24T05:54:38;11.50;99.90
31309;DHT22;17936;52.446;10.840;2023-04-24T05:57:03;11.60;99.90
31309;DHT22;17936;52.446;10.840;2023-04-24T05:59:33;11.50;99.90
31309;DHT22;17936;52.446;10.840;2023-04-24T06:01:58;11.50;99.90
31309;DHT22;17936;52.446;10.840;2023-04-24T06:04:24;11.50;99.90
31309;DHT22;17936;52.446;10.840;2023-04-24T06:06:50;11.60;99.90
31309;DHT22;17936;52.446;10.840;2023-04-24T06:09:24;11.60;99.90
31309;DHT22;17936;52.446;10.840;2023-04-24T06:11:50;11.60;99.90
31309;DHT22;17936;52.446;10.840;2023-04-24T06:14:18;11.70;99.90
31309;DHT22;17936;52.446;10.840;2023-04-24T06:16:43;11.70;99.90
31309;DHT22;17936;52.446;10.840;2023-04-24T06:19:09;11.80;99.90
31309;DHT22;17936;52.446;10.840;2023-04-24T06:21:35;12.50;99.90
31309;DHT22;17936;52.446;10.840;2023-04-24T06:24:00;12.40;99.90
31309;DHT22;17936;52.446;10.840;2023-04-24T06:26:26;12.20;99.90
31309;DHT22;17936;52.446;10.840;2023-04-24T06:28:52;12.20;99.90
31309;DHT22;17936;52.446;10.840;2023-04-24T06:31:19;12.80;99.90
31309;DHT22;17936;52.446;10.840;2023-04-24T06:33:45;13.40;99.90
31309;DHT22;17936;52.446;10.840;2023-04-24T06:36:11;14.20;99.90
31309;DHT22;17936;52.446;10.840;2023-04-24T06:38:36;14.80;99.90
31309;DHT22;17936;52.446;10.840;2023-04-24T06:41:02;13.90;99.90
31309;DHT22;17936;52.446;10.840;2023-04-24T06:43:28;13.70;99.90
31309;DHT22;17936;52.446;10.840;2023-04-24T06:45:54;13.50;99.90
31309;DHT22;17936;52.446;10.840;2023-04-24T06:48:19;13.50;99.90
31309;DHT22;17936;52.446;10.840;2023-04-24T06:50:45;13.20;99.90
31309;DHT22;17936;52.446;10.840;2023-04-24T06:53:12;13.10;99.90
31309;DHT22;17936;52.446;10.840;2023-04-24T06:55:39;13.10;99.90
31309;DHT22;17936;52.446;10.840;2023-04-24T06:58:05;13.20;99.90
31309;DHT22;17936;52.446;10.840;2023-04-24T07:00:31;13.10;99.90
31309;DHT22;17936;52.446;10.840;2023-04-24T07:02:57;13.10;99.90
31309;DHT22;17936;52.446;10.840;2023-04-24T07:05:23;13.00;99.90
31309;DHT22;17936;52.446;10.840;2023-04-24T07:07:48;12.90;99.90
31309;DHT22;17936;52.446;10.840;2023-04-24T07:10:15;12.90;99.90
31309;DHT22;17936;52.446;10.840;2023-04-24T07:12:40;12.70;99.90
31309;DHT22;17936;52.446;10.840;2023-04-24T07:15:06;12.70;99.90
31309;DHT22;17936;52.446;10.840;2023-04-24T07:17:34;12.60;99.90
31309;DHT22;17936;52.446;10.840;2023-04-24T07:20:00;12.70;99.90
31309;DHT22;17936;52.446;10.840;2023-04-24T07:22:25;12.60;99.90
31309;DHT22;17936;52.446;10.840;2023-04-24T07:24:51;12.70;99.90
31309;DHT22;17936;52.446;10.840;2023-04-24T07:27:16;12.80;99.90
31309;DHT22;17936;52.446;10.840;2023-04-24T07:29:42;12.70;99.90
31309;DHT22;17936;52.446;10.840;2023-04-24T07:32:08;12.70;99.90
31309;DHT22;17936;52.446;10.840;2023-04-24T07:34:34;12.70;99.90
31309;DHT22;17936;52.446;10.840;2023-04-24T07:37:00;12.70;99.90
31309;DHT22;17936;52.446;10.840;2023-04-24T07:39:26;12.80;99.90
31309;DHT22;17936;52.446;10.840;2023-04-24T07:41:51;12.90;99.90
31309;DHT22;17936;52.446;10.840;2023-04-24T07:44:17;13.10;99.90
31309;DHT22;17936;52.446;10.840;2023-04-24T07:46:42;13.40;99.90
31309;DHT22;17936;52.446;10.840;2023-04-24T07:49:08;13.20;99.90
31309;DHT22;17936;52.446;10.840;2023-04-24T07:51:34;13.80;99.90
31309;DHT22;17936;52.446;10.840;2023-04-24T07:54:04;14.30;99.90
31309;DHT22;17936;52.446;10.840;2023-04-24T07:56:30;14.30;99.90
31309;DHT22;17936;52.446;10.840;2023-04-24T07:58:56;15.00;99.90
31309;DHT22;17936;52.446;10.840;2023-04-24T08:01:22;14.80;99.90
31309;DHT22;17936;52.446;10.840;2023-04-24T08:03:47;14.20;99.90
31309;DHT22;17936;52.446;10.840;2023-04-24T08:06:13;14.20;99.90
31309;DHT22;17936;52.446;10.840;2023-04-24T08:08:38;13.90;99.90
31309;DHT22;17936;52.446;10.840;2023-04-24T08:11:04;13.60;99.90
31309;DHT22;17936;52.446;10.840;2023-04-24T08:13:29;12.60;99.90
31309;DHT22;17936;52.446;10.840;2023-04-24T08:15:56;12.20;99.90
31309;DHT22;17936;52.446;10.840;2023-04-24T08:18:22;12.10;99.90
31309;DHT22;17936;52.446;10.840;2023-04-24T08:20:47;11.80;99.90
31309;DHT22;17936;52.446;10.840;2023-04-24T08:23:13;11.60;99.90
31309;DHT22;17936;52.446;10.840;2023-04-24T08:25:39;11.60;99.90
31309;DHT22;17936;52.446;10.840;2023-04-24T08:28:06;11.40;99.90
31309;DHT22;17936;52.446;10.840;2023-04-24T08:30:33;11.30;99.90
31309;DHT22;17936;52.446;10.840;2023-04-24T08:32:59;10.90;99.90
31309;DHT22;17936;52.446;10.840;2023-04-24T08:35:25;10.80;99.90
31309;DHT22;17936;52.446;10.840;2023-04-24T08:37:52;10.80;99.90
31309;DHT22;17936;52.446;10.840;2023-04-24T08:40:22;10.80;99.90
31309;DHT22;17936;52.446;10.840;2023-04-24T08:42:50;10.70;99.90
31309;DHT22;17936;52.446;10.840;2023-04-24T08:45:18;10.80;99.90
31309;DHT22;17936;52.446;10.840;2023-04-24T08:47:44;10.90;99.90
31309;DHT22;17936;52.446;10.840;2023-04-24T08:50:11;10.90;99.90
31309;DHT22;17936;52.446;10.840;2023-04-24T08:52:37;11.00;99.90
31309;DHT22;17936;52.446;10.840;2023-04-24T08:55:04;11.10;99.90
31309;DHT22;17936;52.446;10.840;2023-04-24T08:57:31;11.40;99.90
31309;DHT22;17936;52.446;10.840;2023-04-24T08:59:58;11.50;99.90
31309;DHT22;17936;52.446;10.840;2023-04-24T09:02:24;11.70;99.90
31309;DHT22;17936;52.446;10.840;2023-04-24T09:04:50;11.80;99.90
31309;DHT22;17936;52.446;10.840;2023-04-24T09:07:17;11.80;99.90
31309;DHT22;17936;52.446;10.840;2023-04-24T09:09:45;12.00;99.90
31309;DHT22;17936;52.446;10.840;2023-04-24T09:12:11;12.40;99.90
31309;DHT22;17936;52.446;10.840;2023-04-24T09:14:37;12.60;99.90
31309;DHT22;17936;52.446;10.840;2023-04-24T09:17:07;13.40;99.90
31309;DHT22;17936;52.446;10.840;2023-04-24T09:19:33;14.20;99.90
31309;DHT22;17936;52.446;10.840;2023-04-24T09:21:59;14.40;99.90
31309;DHT22;17936;52.446;10.840;2023-04-24T09:24:24;14.60;99.90
31309;DHT22;17936;52.446;10.840;2023-04-24T09:26:57;15.00;99.90
31309;DHT22;17936;52.446;10.840;2023-04-24T09:29:29;15.00;99.90
31309;DHT22;17936;52.446;10.840;2023-04-24T09:31:55;14.60;99.90
31309;DHT22;17936;52.446;10.840;2023-04-24T09:34:26;14.70;99.90
31309;DHT22;17936;52.446;10.840;2023-04-24T09:36:52;14.90;99.90
31309;DHT22;17936;52.446;10.840;2023-04-24T09:39:18;15.00;99.90
31309;DHT22;17936;52.446;10.840;2023-04-24T09:41:55;14.30;99.90
31309;DHT22;17936;52.446;10.840;2023-04-24T09:44:26;13.70;99.90
31309;DHT22;17936;52.446;10.840;2023-04-24T09:46:57;13.30;99.90
31309;DHT22;17936;52.446;10.840;2023-04-24T09:49:30;13.30;99.90
31309;DHT22;17936;52.446;10.840;2023-04-24T09:52:06;13.20;99.90
31309;DHT22;17936;52.446;10.840;2023-04-24T09:54:32;13.60;99.90
31309;DHT22;17936;52.446;10.840;2023-04-24T09:56:58;14.90;99.90
31309;DHT22;17936;52.446;10.840;2023-04-24T09:59:25;15.20;99.90
31309;DHT22;17936;52.446;10.840;2023-04-24T10:01:51;15.40;99.90
31309;DHT22;17936;52.446;10.840;2023-04-24T10:04:21;15.80;99.90
31309;DHT22;17936;52.446;10.840;2023-04-24T10:06:48;15.70;99.90
31309;DHT22;17936;52.446;10.840;2023-04-24T10:09:15;15.20;99.90
31309;DHT22;17936;52.446;10.840;2023-04-24T10:11:43;14.70;99.90
31309;DHT22;17936;52.446;10.840;2023-04-24T10:14:13;15.50;99.90
31309;DHT22;17936;52.446;10.840;2023-04-24T10:16:40;15.40;99.90
31309;DHT22;17936;52.446;10.840;2023-04-24T10:19:06;15.60;99.90
31309;DHT22;17936;52.446;10.840;2023-04-24T10:21:32;15.70;99.90
31309;DHT22;17936;52.446;10.840;2023-04-24T10:23:59;15.90;99.90
31309;DHT22;17936;52.446;10.840;2023-04-24T10:26:26;15.10;99.90
31309;DHT22;17936;52.446;10.840;2023-04-24T10:28:54;14.60;99.90
31309;DHT22;17936;52.446;10.840;2023-04-24T10:31:20;14.80;99.90
31309;DHT22;17936;52.446;10.840;2023-04-24T10:33:46;14.20;99.90
31309;DHT22;17936;52.446;10.840;2023-04-24T10:36:13;14.70;99.90
31309;DHT22;17936;52.446;10.840;2023-04-24T10:38:42;15.80;99.90
31309;DHT22;17936;52.446;10.840;2023-04-24T10:41:12;16.40;99.90
31309;DHT22;17936;52.446;10.840;2023-04-24T10:43:45;16.40;99.90
31309;DHT22;17936;52.446;10.840;2023-04-24T10:46:10;16.00;99.90
31309;DHT22;17936;52.446;10.840;2023-04-24T10:48:52;15.90;99.90
31309;DHT22;17936;52.446;10.840;2023-04-24T10:51:22;15.60;99.90
31309;DHT22;17936;52.446;10.840;2023-04-24T10:53:49;15.40;99.90
31309;DHT22;17936;52.446;10.840;2023-04-24T10:56:16;15.10;99.90
31309;DHT22;17936;52.446;10.840;2023-04-24T10:58:49;15.00;99.90
31309;DHT22;17936;52.446;10.840;2023-04-24T11:01:29;14.90;99.90
31309;DHT22;17936;52.446;10.840;2023-04-24T11:04:04;14.50;99.90
31309;DHT22;17936;52.446;10.840;2023-04-24T11:06:30;14.30;99.90
31309;DHT22;17936;52.446;10.840;2023-04-24T11:09:08;14.30;99.90
31309;DHT22;17936;52.446;10.840;2023-04-24T11:11:36;14.30;99.90
31309;DHT22;17936;52.446;10.840;2023-04-24T11:14:06;14.30;99.90
31309;DHT22;17936;52.446;10.840;2023-04-24T11:16:47;14.60;99.90
31309;DHT22;17936;52.446;10.840;2023-04-24T11:21:45;14.60;99.90
31309;DHT22;17936;52.446;10.840;2023-04-24T11:27:15;14.30;99.90
31309;DHT22;17936;52.446;10.840;2023-04-24T11:37:43;14.50;99.90
31309;DHT22;17936;52.446;10.840;2023-04-24T11:40:11;14.50;99.90
31309;DHT22;17936;52.446;10.840;2023-04-24T11:42:39;14.30;99.90
31309;DHT22;17936;52.446;10.840;2023-04-24T11:45:12;14.20;99.90
31309;DHT22;17936;52.446;10.840;2023-04-24T11:47:39;14.10;99.90
31309;DHT22;17936;52.446;10.840;2023-04-24T11:50:10;14.50;99.90
31309;DHT22;17936;52.446;10.840;2023-04-24T11:52:41;14.90;99.90
31309;DHT22;17936;52.446;10.840;2023-04-24T11:57:48;14.30;99.90
31309;DHT22;17936;52.446;10.840;2023-04-24T12:02:43;13.80;99.90
31309;DHT22;17936;52.446;10.840;2023-04-24T12:05:09;13.80;99.90
31309;DHT22;17936;52.446;10.840;2023-04-24T12:07:44;14.00;99.90
31309;DHT22;17936;52.446;10.840;2023-04-24T12:10:09;14.10;99.90
31309;DHT22;17936;52.446;10.840;2023-04-24T12:12:35;14.00;99.90
31309;DHT22;17936;52.446;10.840;2023-04-24T12:15:01;14.00;99.90
31309;DHT22;17936;52.446;10.840;2023-04-24T12:17:32;13.90;99.90
31309;DHT22;17936;52.446;10.840;2023-04-24T12:20:04;14.10;99.90
31309;DHT22;17936;52.446;10.840;2023-04-24T12:22:53;14.00;99.90
31309;DHT22;17936;52.446;10.840;2023-04-24T12:25:23;14.30;99.90
31309;DHT22;17936;52.446;10.840;2023-04-24T12:28:11;14.80;99.90
31309;DHT22;17936;52.446;10.840;2023-04-24T12:30:43;14.60;99.90
31309;DHT22;17936;52.446;10.840;2023-04-24T12:33:20;14.60;99.80
31309;DHT22;17936;52.446;10.840;2023-04-24T12:35:51;14.70;99.90
31309;DHT22;17936;52.446;10.840;2023-04-24T12:38:22;14.30;99.90
31309;DHT22;17936;52.446;10.840;2023-04-24T12:41:00;14.30;99.90
31309;DHT22;17936;52.446;10.840;2023-04-24T12:43:26;14.10;99.90
31309;DHT22;17936;52.446;10.840;2023-04-24T12:45:51;14.20;99.90
31309;DHT22;17936;52.446;10.840;2023-04-24T12:48:17;14.70;99.90
31309;DHT22;17936;52.446;10.840;2023-04-24T12:50:43;14.60;99.90
31309;DHT22;17936;52.446;10.840;2023-04-24T12:53:08;14.80;99.90
31309;DHT22;17936;52.446;10.840;2023-04-24T12:55:34;14.30;99.90
31309;DHT22;17936;52.446;10.840;2023-04-24T12:58:00;14.00;99.90
31309;DHT22;17936;52.446;10.840;2023-04-24T13:00:27;13.80;99.90
31309;DHT22;17936;52.446;10.840;2023-04-24T13:02:52;13.70;99.90
31309;DHT22;17936;52.446;10.840;2023-04-24T13:05:18;13.70;99.90
31309;DHT22;17936;52.446;10.840;2023-04-24T13:07:44;13.70;99.90
31309;DHT22;17936;52.446;10.840;2023-04-24T13:10:09;13.70;99.90
31309;DHT22;17936;52.446;10.840;2023-04-24T13:12:35;13.30;99.90
31309;DHT22;17936;52.446;10.840;2023-04-24T13:15:01;13.00;99.90
31309;DHT22;17936;52.446;10.840;2023-04-24T13:17:26;13.10;99.90
31309;DHT22;17936;52.446;10.840;2023-04-24T13:19:54;12.90;99.90
31309;DHT22;17936;52.446;10.840;2023-04-24T13:22:20;12.80;99.90
31309;DHT22;17936;52.446;10.840;2023-04-24T13:24:46;12.40;99.90
31309;DHT22;17936;52.446;10.840;2023-04-24T13:27:13;12.30;99.90
31309;DHT22;17936;52.446;10.840;2023-04-24T13:29:39;12.20;99.90
31309;DHT22;17936;52.446;10.840;2023-04-24T13:32:06;12.30;99.90
31309;DHT22;17936;52.446;10.840;2023-04-24T13:34:31;12.40;99.90
31309;DHT22;17936;52.446;10.840;2023-04-24T13:36:57;12.40;99.90
31309;DHT22;17936;52.446;10.840;2023-04-24T13:39:24;12.50;99.90
31309;DHT22;17936;52.446;10.840;2023-04-24T13:41:50;12.40;99.90
31309;DHT22;17936;52.446;10.840;2023-04-24T13:44:17;12.00;99.90
31309;DHT22;17936;52.446;10.840;2023-04-24T13:46:44;12.00;99.90
31309;DHT22;17936;52.446;10.840;2023-04-24T13:49:11;12.00;99.90
31309;DHT22;17936;52.446;10.840;2023-04-24T13:51:37;12.00;99.90
31309;DHT22;17936;52.446;10.840;2023-04-24T13:54:03;11.80;99.90
31309;DHT22;17936;52.446;10.840;2023-04-24T13:56:28;12.00;99.90
31309;DHT22;17936;52.446;10.840;2023-04-24T13:58:54;11.90;99.90
31309;DHT22;17936;52.446;10.840;2023-04-24T14:01:20;11.70;99.90
31309;DHT22;17936;52.446;10.840;2023-04-24T14:03:49;11.70;99.90
31309;DHT22;17936;52.446;10.840;2023-04-24T14:06:15;11.60;99.90
31309;DHT22;17936;52.446;10.840;2023-04-24T14:08:40;11.60;99.90
31309;DHT22;17936;52.446;10.840;2023-04-24T14:11:06;11.80;99.90
31309;DHT22;17936;52.446;10.840;2023-04-24T14:13:32;11.80;99.90
31309;DHT22;17936;52.446;10.840;2023-04-24T14:15:58;11.90;99.90
31309;DHT22;17936;52.446;10.840;2023-04-24T14:18:23;11.80;99.90
31309;DHT22;17936;52.446;10.840;2023-04-24T14:20:49;11.90;99.90
31309;DHT22;17936;52.446;10.840;2023-04-24T14:23:15;11.80;99.90
31309;DHT22;17936;52.446;10.840;2023-04-24T14:25:40;11.80;99.90
31309;DHT22;17936;52.446;10.840;2023-04-24T14:28:06;11.70;99.90
31309;DHT22;17936;52.446;10.840;2023-04-24T14:30:32;11.60;99.90
31309;DHT22;17936;52.446;10.840;2023-04-24T14:32:57;11.50;99.90
31309;DHT22;17936;52.446;10.840;2023-04-24T14:35:23;11.50;99.90
31309;DHT22;17936;52.446;10.840;2023-04-24T14:37:49;11.40;99.90
31309;DHT22;17936;52.446;10.840;2023-04-24T14:40:15;11.30;99.90
31309;DHT22;17936;52.446;10.840;2023-04-24T14:42:40;11.20;99.90
31309;DHT22;17936;52.446;10.840;2023-04-24T14:45:06;11.10;99.90
31309;DHT22;17936;52.446;10.840;2023-04-24T14:47:33;11.30;99.90
31309;DHT22;17936;52.446;10.840;2023-04-24T14:49:58;11.20;99.90
31309;DHT22;17936;52.446;10.840;2023-04-24T14:52:24;11.00;99.90
31309;DHT22;17936;52.446;10.840;2023-04-24T14:54:50;11.00;99.90
31309;DHT22;17936;52.446;10.840;2023-04-24T14:57:15;11.10;99.90
31309;DHT22;17936;52.446;10.840;2023-04-24T14:59:41;11.30;99.90
31309;DHT22;17936;52.446;10.840;2023-04-24T15:02:07;11.10;99.90
31309;DHT22;17936;52.446;10.840;2023-04-24T15:04:32;11.20;99.90
31309;DHT22;17936;52.446;10.840;2023-04-24T15:06:58;11.10;99.90
31309;DHT22;17936;52.446;10.840;2023-04-24T15:09:24;10.80;99.90
31309;DHT22;17936;52.446;10.840;2023-04-24T15:11:51;10.70;99.90
31309;DHT22;17936;52.446;10.840;2023-04-24T15:14:17;10.50;99.90
31309;DHT22;17936;52.446;10.840;2023-04-24T15:16:43;10.20;99.90
31309;DHT22;17936;52.446;10.840;2023-04-24T15:19:09;9.80;99.90
31309;DHT22;17936;52.446;10.840;2023-04-24T15:21:36;9.80;99.90
31309;DHT22;17936;52.446;10.840;2023-04-24T15:24:02;9.90;99.90
31309;DHT22;17936;52.446;10.840;2023-04-24T15:26:27;9.90;99.90
31309;DHT22;17936;52.446;10.840;2023-04-24T15:28:53;9.80;99.90
31309;DHT22;17936;52.446;10.840;2023-04-24T15:31:19;9.70;99.90
31309;DHT22;17936;52.446;10.840;2023-04-24T15:33:44;9.80;99.90